Latest Weather Observations for Cape Jaffa

IDS60801

Issued at 7:01 am CDT Tuesday 6 December 2022 (issued every 10 minutes, with the page automatically refreshed every 10 minutes)

About weather observations | Map of weather stations | Latest weather observations for SA | Other Formats
Station Details ID: 026095 Name: THE LIMESTONE Lat: -36.97 Lon: 139.72 Height: 17.0 m
Data from the previous 72 hours. | See also: Recent months at Cape Jaffa
Date/Time
CDT
Temp
°C
App
Temp
°C
Dew
Point
°C
Rel
Hum
%
Delta-T
°C
Wind Press
QNH
hPa
Press
MSL
hPa
Rain since
9am
mm
Dir  Spd
km/h
Gust
km/h
Spd
kts
Gust
kts
06/07:00am 10.0 8.1 6.7 80 1.5 ESE 6 9 3 5 1014.2 1014.1 0.0
06/06:30am 8.3 5.6 5.6 83 1.2 SE 9 13 5 7 1014.0 1013.9 0.0
06/06:00am 7.1 3.8 4.8 85 1.0 SE 11 13 6 7 1013.9 1013.8 0.0
06/05:30am 7.2 4.3 4.5 83 1.2 SE 9 13 5 7 1014.0 1013.9 0.0
06/05:00am 7.1 4.5 4.2 82 1.3 SE 7 11 4 6 1014.1 1014.0 0.0
06/04:30am 7.1 4.5 4.4 83 1.2 SE 7 9 4 5 1014.2 1014.1 0.0
06/04:00am 6.8 3.6 3.2 78 1.5 SE 9 13 5 7 1014.0 1013.9 0.0
06/03:30am 7.6 5.0 4.4 80 1.4 SSE 7 9 4 5 1014.6 1014.5 0.0
06/03:00am 7.4 4.9 4.0 79 1.5 SE 6 7 3 4 1014.7 1014.6 0.0
06/02:30am 8.1 5.1 4.3 77 1.7 SE 9 15 5 8 1014.9 1014.8 0.0
06/02:00am 8.2 5.3 4.4 77 1.7 SSE 9 13 5 7 1015.5 1015.4 0.0
06/01:30am 8.1 5.1 3.9 75 1.8 SE 9 11 5 6 1015.7 1015.6 0.0
06/01:00am 9.1 5.8 4.5 73 2.0 SE 11 17 6 9 1016.0 1015.9 0.0
06/12:30am 9.5 5.8 4.7 72 2.1 SE 13 19 7 10 1016.2 1016.1 0.0
06/12:00am 9.9 6.3 4.9 71 2.2 SE 13 19 7 10 1016.4 1016.3 0.0
 
Date/Time
CDT
Temp
°C
App
Temp
°C
Dew
Point
°C
Rel
Hum
%
Delta-T
°C
Wind Press
QNH
hPa
Press
MSL
hPa
Rain since
9am
mm
Dir  Spd
km/h
Gust
km/h
Spd
kts
Gust
kts
05/11:30pm 9.6 6.0 5.2 74 2.0 SE 13 20 7 11 1016.8 1016.7 0.0
05/11:00pm 9.6 6.3 4.8 72 2.1 SE 11 15 6 8 1017.1 1017.0 0.0
05/10:30pm 10.1 6.9 4.9 70 2.3 SE 11 17 6 9 1017.3 1017.2 0.0
05/10:00pm 10.7 7.5 5.3 69 2.5 SSE 11 19 6 10 1017.4 1017.3 0.0
05/09:30pm 10.9 7.7 5.2 68 2.6 SSE 11 17 6 9 1017.5 1017.4 0.0
05/09:00pm 11.3 7.4 5.4 67 2.7 SSE 15 20 8 11 1017.1 1017.0 0.0
05/08:30pm 11.9 7.3 5.8 66 2.8 SSE 19 30 10 16 1016.7 1016.6 0.0
05/08:00pm 12.9 6.7 6.0 63 3.3 S 28 41 15 22 1016.7 1016.6 0.0
05/07:30pm 13.6 6.9 5.7 59 3.7 S 30 41 16 22 1016.6 1016.5 0.0
05/07:00pm 14.5 8.0 6.6 59 3.8 S 30 39 16 21 1016.7 1016.6 0.0
05/06:30pm 14.9 8.3 6.2 56 4.2 S 30 43 16 23 1016.7 1016.6 0.0
05/06:00pm 15.8 8.7 6.5 54 4.5 S 33 44 18 24 1016.5 1016.4 0.0
05/05:30pm 16.1 8.3 6.5 53 4.7 SSW 37 46 20 25 1016.2 1016.1 0.0
05/05:00pm 16.7 9.1 7.4 54 4.7 SSW 37 48 20 26 1016.3 1016.2 0.0
05/04:30pm 16.9 8.8 7.0 52 4.9 SSW 39 48 21 26 1016.4 1016.3 0.0
05/04:00pm 17.6 9.6 7.6 52 5.1 S 39 48 21 26 1016.5 1016.4 0.0
05/03:30pm 17.5 9.0 8.6 56 4.6 S 43 54 23 29 1016.5 1016.4 0.0
05/03:00pm 17.8 9.8 7.5 51 5.2 S 39 52 21 28 1016.7 1016.6 0.0
05/02:30pm 17.6 8.7 6.8 49 5.4 S 43 50 23 27 1016.6 1016.5 0.0
05/02:00pm 17.5 8.6 6.7 49 5.4 SSW 43 54 23 29 1016.7 1016.6 0.0
05/01:30pm 18.1 10.2 6.3 46 5.8 SSW 37 52 20 28 1016.9 1016.8 0.0
05/01:00pm 18.1 10.4 7.2 49 5.5 SSW 37 50 20 27 1017.1 1017.0 0.0
05/12:30pm 18.0 9.7 6.2 46 5.8 S 39 48 21 26 1017.1 1017.0 0.0
05/12:00pm 17.9 10.0 6.4 47 5.7 S 37 50 20 27 1017.0 1016.9 0.0
05/11:30am 17.9 9.7 8.2 53 5.0 S 41 54 22 29 1016.8 1016.7 0.0
05/11:00am 17.3 9.1 8.4 56 4.6 S 41 52 22 28 1016.7 1016.6 0.0
05/10:30am 16.7 9.2 8.1 57 4.4 S 37 50 20 27 1016.5 1016.4 0.0
05/10:00am 16.4 9.1 8.9 61 3.9 S 37 46 20 25 1016.4 1016.3 0.0
05/09:30am 16.7 10.6 10.5 67 3.3 S 33 46 18 25 1016.1 1016.0 0.0
05/09:00am 15.6 10.4 10.4 71 2.7 SSE 28 43 15 23 1016.1 1016.0 0.0
05/08:30am 14.6 8.7 10.6 77 2.1 SSE 32 44 17 24 1015.6 1015.5 0.0
05/08:00am 13.3 8.0 11.4 88 1.0 SSE 30 50 16 27 1015.5 1015.4 0.0
05/07:51am 13.9 8.8 10.5 80 1.8 S 28 50 15 27 1015.3 1015.2 0.0
05/07:30am 14.3 9.3 9.7 74 2.4 SSE 26 39 14 21 1015.2 1015.1 0.0
05/07:00am 14.6 8.4 10.0 74 2.4 S 33 44 18 24 1014.7 1014.6 0.0
05/06:30am 14.1 8.9 10.3 78 2.0 SSE 28 39 15 21 1014.4 1014.3 0.0
05/06:00am 14.6 8.6 10.0 74 2.4 S 32 44 17 24 1014.1 1014.0 0.0
05/05:30am 14.6 8.1 10.2 75 2.3 S 35 48 19 26 1013.8 1013.7 0.0
05/05:00am 14.4 7.7 11.0 80 1.8 S 37 52 20 28 1013.6 1013.5 0.0
05/04:30am 14.6 8.3 11.0 79 1.9 S 35 48 19 26 1013.2 1013.1 0.0
05/04:00am 14.8 8.4 10.6 76 2.2 S 35 44 19 24 1013.3 1013.2 0.0
05/03:30am 15.2 8.4 9.1 67 3.1 S 35 46 19 25 1013.3 1013.2 0.0
05/03:00am 15.3 8.0 10.1 71 2.7 S 39 52 21 28 1013.1 1013.0 0.0
05/02:30am 15.3 7.6 10.1 71 2.7 S 41 50 22 27 1013.0 1012.9 0.0
05/02:00am 15.4 8.6 10.6 73 2.5 SSW 37 48 20 26 1013.1 1013.0 0.0
05/01:30am 15.4 8.2 10.6 73 2.5 SSW 39 54 21 29 1012.8 1012.7 0.0
05/01:00am 15.5 8.9 11.3 76 2.3 SSW 37 48 20 26 1012.9 1012.8 0.0
05/12:30am 15.4 8.9 11.6 78 2.0 SSW 37 46 20 25 1012.9 1012.8 0.0
05/12:00am 15.7 8.5 10.7 72 2.7 SSW 39 52 21 28 1012.7 1012.6 0.0
 
Date/Time
CDT
Temp
°C
App
Temp
°C
Dew
Point
°C
Rel
Hum
%
Delta-T
°C
Wind Press
QNH
hPa
Press
MSL
hPa
Rain since
9am
mm
Dir  Spd
km/h
Gust
km/h
Spd
kts
Gust
kts
04/11:30pm 15.6 9.0 11.2 75 2.4 SSW 37 50 20 27 1012.7 1012.6 0.0
04/11:00pm 15.6 9.1 11.8 78 2.1 SSW 37 46 20 25 1012.5 1012.4 0.0
04/10:30pm 15.7 10.7 12.1 79 2.0 SSW 30 43 16 23 1012.6 1012.5 0.0
04/10:00pm 15.8 10.2 12.2 79 2.0 SSW 33 43 18 23 1012.4 1012.3 0.0
04/09:30pm 15.9 10.6 12.6 81 1.8 SW 32 41 17 22 1011.7 1011.6 0.0
04/09:00pm 15.9 10.5 12.8 82 1.7 SSW 33 41 18 22 1011.5 1011.4 0.0
04/08:30pm 16.0 10.8 12.9 82 1.7 SSW 32 41 17 22 1011.2 1011.1 0.0
04/08:00pm 16.4 12.2 13.5 83 1.6 SW 28 39 15 21 1011.0 1010.9 0.0
04/07:30pm 16.4 11.7 13.1 81 1.8 SW 30 44 16 24 1010.5 1010.4 0.0
04/07:00pm 16.6 12.8 13.5 82 1.7 SW 26 35 14 19 1010.2 1010.1 0.0
04/06:30pm 16.9 12.3 13.6 81 1.9 SW 30 41 16 22 1009.8 1009.7 0.0
04/06:00pm 16.8 12.2 13.5 81 1.9 WSW 30 39 16 21 1009.6 1009.5 0.0
04/05:30pm 17.2 13.1 13.9 81 1.9 WSW 28 37 15 20 1009.4 1009.3 0.0
04/05:00pm 17.7 14.7 13.8 78 2.2 WSW 22 28 12 15 1009.0 1008.9 0.0
04/04:30pm 17.1 13.1 14.0 82 1.8 WSW 28 35 15 19 1009.5 1009.4 0.0
04/04:00pm 18.3 15.2 14.4 78 2.2 WSW 24 32 13 17 1009.2 1009.1 0.0
04/03:30pm 19.4 16.2 15.3 77 2.4 WSW 26 33 14 18 1009.5 1009.4 0.0
04/03:00pm 19.8 18.2 15.0 74 2.8 WSW 17 20 9 11 1009.0 1008.9 0.0
04/02:30pm 21.5 19.3 14.9 66 3.9 WSW 20 26 11 14 1009.3 1009.2 0.0
04/02:00pm 21.8 18.7 13.4 59 4.8 W 22 28 12 15 1009.4 1009.3 0.0
04/01:30pm 23.8 20.9 12.4 48 6.5 W 19 26 10 14 1009.4 1009.3 0.0
04/01:00pm 27.1 25.1 11.6 38 8.9 WNW 13 20 7 11 1009.2 1009.1 0.0
04/12:30pm 28.2 24.3 8.5 29 10.8 W 19 26 10 14 1009.2 1009.1 0.0
04/12:00pm 27.1 24.2 9.5 33 9.7 W 15 24 8 13 1009.5 1009.4 0.0
04/11:30am 26.1 22.3 11.1 39 8.5 W 22 32 12 17 1010.0 1009.9 0.0
04/11:00am 24.4 21.6 13.3 50 6.5 WNW 20 33 11 18 1010.3 1010.2 0.0
04/10:30am 22.0 19.5 14.1 61 4.6 WNW 20 32 11 17 1010.4 1010.3 0.0
04/10:00am 22.6 18.8 12.3 52 5.8 N 24 30 13 16 1009.6 1009.5 0.0
04/09:30am 22.4 19.0 12.6 54 5.6 N 22 32 12 17 1009.9 1009.8 0.0
04/09:00am 22.7 19.9 13.2 55 5.5 N 20 26 11 14 1009.9 1009.8 0.0
04/08:30am 21.1 18.2 13.0 60 4.6 N 20 26 11 14 1009.9 1009.8 0.0
04/08:00am 20.5 17.8 13.5 64 4.0 N 20 28 11 15 1009.6 1009.5 0.0
04/07:30am 19.5 17.1 13.9 70 3.2 N 19 24 10 13 1009.7 1009.6 0.0
04/07:00am 18.2 15.8 13.7 75 2.6 N 19 24 10 13 1009.2 1009.1 0.0
04/06:30am 13.3 10.6 10.5 83 1.5 NE 15 17 8 9 1009.1 1009.0 0.0
04/06:00am 12.8 10.2 9.3 79 1.8 NE 13 17 7 9 1009.1 1009.0 0.0
04/05:30am 12.3 9.9 8.6 78 1.8 ENE 11 13 6 7 1009.2 1009.1 0.0
04/05:00am 12.5 9.7 8.4 76 2.0 ENE 13 15 7 8 1009.3 1009.2 0.0
04/04:30am 12.8 10.0 8.7 76 2.1 ENE 13 15 7 8 1009.3 1009.2 0.0
04/04:00am 13.0 11.3 8.5 74 2.2 E 7 11 4 6 1009.5 1009.4 0.0
04/03:30am 12.9 10.1 8.6 75 2.2 ENE 13 15 7 8 1009.3 1009.2 0.0
04/03:00am 13.2 10.8 8.7 74 2.3 ENE 11 15 6 8 1009.4 1009.3 0.0
04/02:30am 13.9 10.5 9.1 73 2.4 ENE 17 19 9 10 1009.8 1009.7 0.0
04/02:00am 13.5 10.4 8.8 73 2.4 ENE 15 17 8 9 1010.4 1010.3 0.0
04/01:30am 13.5 10.4 8.8 73 2.4 E 15 15 8 8 1010.7 1010.6 0.0
04/01:00am 14.2 11.1 9.0 71 2.6 E 15 17 8 9 1011.2 1011.1 0.0
04/12:30am 15.5 13.3 9.4 67 3.2 E 11 13 6 7 1011.6 1011.5 0.0
04/12:00am 16.2 14.2 10.1 67 3.2 ESE 11 11 6 6 1011.9 1011.8 0.0
 
Date/Time
CDT
Temp
°C
App
Temp
°C
Dew
Point
°C
Rel
Hum
%
Delta-T
°C
Wind Press
QNH
hPa
Press
MSL
hPa
Rain since
9am
mm
Dir  Spd
km/h
Gust
km/h
Spd
kts
Gust
kts
03/11:30pm 16.7 14.6 9.9 64 3.6 ESE 11 13 6 7 1012.1 1012.0 0.0
03/11:00pm 16.7 14.6 9.6 63 3.7 ESE 11 13 6 7 1012.3 1012.2 0.0
03/10:30pm 16.8 14.6 9.2 61 3.9 ESE 11 13 6 7 1012.4 1012.3 0.0
03/10:00pm 17.7 15.7 8.8 56 4.6 ESE 9 11 5 6 1012.1 1012.0 0.0
03/09:30pm 18.9 16.2 7.4 47 5.8 ESE 11 13 6 7 1012.0 1011.9 0.0
03/09:00pm 19.6 17.5 6.7 43 6.5 SE 7 9 4 5 1012.0 1011.9 0.0
03/08:30pm 19.7 18.2 9.3 51 5.5 SE 7 7 4 4 1011.9 1011.8 0.0
03/08:00pm 20.8 19.8 10.9 53 5.4 SE 7 9 4 5 1011.9 1011.8 0.0
03/07:30pm 21.9 20.9 12.2 54 5.5 S 9 13 5 7 1012.0 1011.9 0.0
03/07:00pm 22.4 20.4 12.6 54 5.6 S 15 17 8 9 1011.9 1011.8 0.0
03/06:30pm 24.3 22.0 10.6 42 7.6 SSW 13 15 7 8 1011.9 1011.8 0.0
03/06:00pm 24.8 23.1 12.4 46 7.1 SSW 13 15 7 8 1011.8 1011.7 0.0
03/05:30pm 25.6 24.0 11.7 42 7.9 SSW 11 13 6 7 1011.8 1011.7 0.0
03/05:00pm 26.3 24.8 12.0 41 8.2 SW 11 17 6 9 1011.9 1011.8 0.0
03/04:30pm 26.2 24.3 13.0 44 7.7 SW 15 19 8 10 1012.1 1012.0 0.0
03/04:00pm 26.5 24.8 13.6 45 7.6 WSW 15 22 8 12 1012.4 1012.3 0.0
03/03:30pm 28.4 25.4 10.6 33 10.1 W 17 20 9 11 1012.6 1012.5 0.0
03/03:00pm 28.6 26.4 12.1 36 9.6 W 15 22 8 12 1012.8 1012.7 0.0
03/02:30pm 30.3 25.8 4.1 19 13.5 WNW 17 24 9 13 1013.0 1012.9 0.0
03/02:00pm 30.0 27.4 7.8 25 12.1 WNW 11 17 6 9 1013.2 1013.1 0.0
03/01:30pm 29.6 26.6 7.5 25 12.0 NW 13 19 7 10 1013.5 1013.4 0.0
03/01:00pm 29.9 27.5 9.9 29 11.3 NNW 13 20 7 11 1013.6 1013.5 0.0
03/12:30pm 28.9 26.5 11.5 34 10.0 NNW 15 20 8 11 1013.8 1013.7 0.0
03/12:00pm 28.7 26.1 10.8 33 10.2 NNW 15 19 8 10 1013.9 1013.8 0.0
03/11:30am 28.1 25.8 11.6 36 9.5 N 15 20 8 11 1014.0 1013.9 0.0
03/11:00am 27.1 24.6 11.2 37 9.0 N 15 19 8 10 1014.1 1014.0 0.0
03/10:30am 27.1 24.8 11.6 38 8.9 N 15 22 8 12 1014.1 1014.0 0.0
03/10:00am 25.6 24.6 13.5 47 7.1 NNE 11 17 6 9 1014.2 1014.1 0.0
03/09:30am 24.5 23.5 13.4 50 6.5 N 11 17 6 9 1014.3 1014.2 0.0
03/09:00am 23.4 22.3 13.0 52 6.0 N 11 13 6 7 1014.5 1014.4 0.0
03/08:30am 21.1 20.8 14.3 65 4.0 NE 9 11 5 6 1014.4 1014.3 0.0
03/08:00am 18.2 17.3 13.7 75 2.6 NE 11 17 6 9 1014.2 1014.1 0.0
03/07:30am 16.0 15.5 13.8 87 1.2 NE 9 13 5 7 1013.9 1013.8 0.0

Other formats

Comma delimited format used in spreadsheet applications
http://www.bom.gov.au/fwo/IDS60801/IDS60801.94813.axf

JavaScript Object Notation format (JSON) in row-major order
http://www.bom.gov.au/fwo/IDS60801/IDS60801.94813.json

Data quality

Most of these data are generated automatically and are frequently updated. Quality checks on data are not normally performed. It is possible for incorrect values to appear. Refer to information at About Latest Weather Observations and please check the disclaimer before using these data.